TimeCST,TemperatureF,Dew PointF,Humidity,Sea Level PressureIn,VisibilityMPH,Wind Direction,Wind SpeedMPH,Gust SpeedMPH,PrecipitationIn,Events,Conditions,WindDirDegrees,DateUTC
12:53 AM,37.0,30.9,79,30.28,10.0,SW,11.5,-,N/A,,Overcast,220,2013-01-05 06:53:00
1:53 AM,37.0,30.9,79,30.26,10.0,SW,12.7,-,N/A,,Overcast,230,2013-01-05 07:53:00
2:53 AM,37.0,30.9,79,30.25,10.0,SW,15.0,-,N/A,,Overcast,230,2013-01-05 08:53:00
3:53 AM,37.0,30.9,79,30.24,10.0,SSW,13.8,-,N/A,,Overcast,210,2013-01-05 09:53:00
4:53 AM,36.0,30.9,82,30.23,10.0,SSW,11.5,-,N/A,,Overcast,210,2013-01-05 10:53:00
5:44 AM,35.6,30.2,81,30.20,10.0,SSW,8.1,-,N/A,,Overcast,210,2013-01-05 11:44:00
5:53 AM,36.0,30.9,82,30.22,10.0,SSW,8.1,-,N/A,,Overcast,210,2013-01-05 11:53:00
6:53 AM,36.0,30.9,82,30.23,10.0,SSW,13.8,-,N/A,,Overcast,210,2013-01-05 12:53:00
7:53 AM,34.0,30.9,89,30.25,10.0,SSW,9.2,-,N/A,,Mostly Cloudy,210,2013-01-05 13:53:00
8:23 AM,35.6,30.2,81,30.22,10.0,SW,11.5,-,N/A,,Scattered Clouds,220,2013-01-05 14:23:00
8:53 AM,36.0,30.9,82,30.24,10.0,SSW,13.8,-,N/A,,Partly Cloudy,210,2013-01-05 14:53:00
9:53 AM,37.9,30.0,73,30.24,10.0,SW,19.6,-,N/A,,Clear,220,2013-01-05 15:53:00
10:53 AM,41.0,30.0,65,30.23,10.0,SW,16.1,-,N/A,,Clear,220,2013-01-05 16:53:00
11:53 AM,43.0,30.0,60,30.22,-9999.0,West,15.0,-,N/A,,Clear,260,2013-01-05 17:53:00
12:53 PM,46.0,28.9,51,30.19,10.0,West,11.5,-,N/A,,Clear,260,2013-01-05 18:53:00
1:53 PM,48.0,28.0,46,30.17,10.0,West,10.4,-,N/A,,Clear,270,2013-01-05 19:53:00
2:53 PM,50.0,24.1,36,30.17,10.0,WNW,9.2,-,N/A,,Clear,300,2013-01-05 20:53:00
3:53 PM,52.0,19.9,28,30.18,10.0,NW,13.8,-,N/A,,Clear,310,2013-01-05 21:53:00
4:53 PM,50.0,19.0,29,30.21,10.0,NNW,11.5,-,N/A,,Clear,330,2013-01-05 22:53:00
5:53 PM,42.1,21.0,43,30.25,10.0,NNW,8.1,-,N/A,,Clear,340,2013-01-05 23:53:00
6:53 PM,36.0,21.0,55,30.27,10.0,North,8.1,-,N/A,,Clear,350,2013-01-06 00:53:00
7:53 PM,35.1,23.0,61,30.30,10.0,North,9.2,-,N/A,,Clear,350,2013-01-06 01:53:00
8:53 PM,33.1,24.1,70,30.32,10.0,NNW,10.4,-,N/A,,Clear,340,2013-01-06 02:53:00
9:53 PM,32.0,23.0,69,30.35,10.0,NNW,10.4,-,N/A,,Clear,340,2013-01-06 03:53:00
10:53 PM,30.9,21.9,69,30.37,10.0,NNW,8.1,-,N/A,,Clear,330,2013-01-06 04:53:00
11:53 PM,30.0,23.0,75,30.38,10.0,NW,9.2,-,N/A,,Clear,320,2013-01-06 05:53:00